Time,TemperatureF,DewpointF,PressureIn,WindDirection,WindDirectionDegrees,WindSpeedMPH,WindSpeedGustMPH,Humidity,HourlyPrecipIn,Conditions,Clouds,dailyrainin,SoftwareType,DateUTC
2013-01-10 00:09:00,17.8,8.0,30.16,SW,224,1.0,2.0,66,0.00,,,0.00,weatherlink.com 1.10,2013-01-10 07:09:00,
2013-01-10 00:24:00,17.5,8.0,30.15,SW,231,1.0,5.0,65,0.00,,,0.00,weatherlink.com 1.10,2013-01-10 07:24:00,
2013-01-10 00:39:00,17.4,7.0,30.15,SW,231,2.0,2.0,65,0.00,,,0.00,weatherlink.com 1.10,2013-01-10 07:39:00,
2013-01-10 00:54:00,17.2,8.0,30.14,SW,231,0.0,3.0,66,0.00,,,0.00,weatherlink.com 1.10,2013-01-10 07:54:00,
2013-01-10 01:09:00,16.8,7.0,30.14,SW,231,0.0,2.0,66,0.00,,,0.00,weatherlink.com 1.10,2013-01-10 08:09:00,
2013-01-10 01:24:00,16.3,7.0,30.13,SW,231,4.0,5.0,67,0.00,,,0.00,weatherlink.com 1.10,2013-01-10 08:24:00,
2013-01-10 01:39:00,16.0,7.0,30.13,SW,231,1.0,3.0,68,0.00,,,0.00,weatherlink.com 1.10,2013-01-10 08:39:00,
2013-01-10 01:54:00,15.6,7.0,30.13,SW,231,0.0,1.0,69,0.00,,,0.00,weatherlink.com 1.10,2013-01-10 08:54:00,
2013-01-10 02:09:00,15.3,7.0,30.12,SW,231,0.0,0.0,70,0.00,,,0.00,weatherlink.com 1.10,2013-01-10 09:09:00,
2013-01-10 02:24:00,15.0,7.0,30.12,SW,231,0.0,0.0,71,0.00,,,0.00,weatherlink.com 1.10,2013-01-10 09:24:00,
2013-01-10 02:39:00,14.8,7.0,30.11,SW,229,2.0,3.0,72,0.00,,,0.00,weatherlink.com 1.10,2013-01-10 09:39:00,
2013-01-10 02:54:00,14.7,8.0,30.11,SW,229,3.0,3.0,73,0.00,,,0.00,weatherlink.com 1.10,2013-01-10 09:54:00,
2013-01-10 03:09:00,14.5,7.0,30.10,SW,229,3.0,4.0,72,0.00,,,0.00,weatherlink.com 1.10,2013-01-10 10:09:00,
2013-01-10 03:24:00,14.6,6.0,30.10,SW,220,6.0,7.0,70,0.00,,,0.00,weatherlink.com 1.10,2013-01-10 10:24:00,
2013-01-10 03:39:00,16.2,6.0,30.09,North,360,5.0,7.0,65,0.00,,,0.00,weatherlink.com 1.10,2013-01-10 10:39:00,
2013-01-10 03:54:00,17.9,6.0,30.09,SW,229,3.0,5.0,61,0.00,,,0.00,weatherlink.com 1.10,2013-01-10 10:54:00,
2013-01-10 04:09:00,18.7,7.0,30.09,SW,229,1.0,2.0,61,0.00,,,0.00,weatherlink.com 1.10,2013-01-10 11:09:00,
2013-01-10 04:24:00,18.9,7.0,30.08,SW,229,1.0,2.0,61,0.00,,,0.00,weatherlink.com 1.10,2013-01-10 11:24:00,
2013-01-10 04:39:00,18.8,8.0,30.07,SW,226,3.0,4.0,62,0.00,,,0.00,weatherlink.com 1.10,2013-01-10 11:39:00,
2013-01-10 04:54:00,19.1,6.0,30.07,SW,216,7.0,7.0,58,0.00,,,0.00,weatherlink.com 1.10,2013-01-10 11:54:00,
2013-01-10 05:09:00,20.7,6.0,30.06,SSW,213,6.0,7.0,54,0.00,,,0.00,weatherlink.com 1.10,2013-01-10 12:09:00,
2013-01-10 05:24:00,22.7,6.0,30.05,SW,230,5.0,9.0,49,0.00,,,0.00,weatherlink.com 1.10,2013-01-10 12:24:00,
2013-01-10 05:40:00,24.3,6.0,30.05,SW,224,2.0,9.0,45,0.00,,,0.00,weatherlink.com 1.10,2013-01-10 12:40:00,
2013-01-10 05:55:00,25.2,6.0,30.04,WSW,238,1.0,6.0,44,0.00,,,0.00,weatherlink.com 1.10,2013-01-10 12:55:00,
2013-01-10 06:10:00,25.7,6.0,30.04,WSW,240,1.0,5.0,43,0.00,,,0.00,weatherlink.com 1.10,2013-01-10 13:10:00,
2013-01-10 06:25:00,25.7,7.0,30.04,WSW,240,1.0,3.0,45,0.00,,,0.00,weatherlink.com 1.10,2013-01-10 13:25:00,
2013-01-10 06:40:00,25.2,7.0,30.04,WSW,242,0.0,0.0,46,0.00,,,0.00,weatherlink.com 1.10,2013-01-10 13:40:00,
2013-01-10 06:55:00,24.2,6.0,30.04,WSW,242,1.0,2.0,46,0.00,,,0.00,weatherlink.com 1.10,2013-01-10 13:55:00,
2013-01-10 07:10:00,23.4,6.0,30.04,WSW,241,1.0,3.0,47,0.00,,,0.00,weatherlink.com 1.10,2013-01-10 14:10:00,
2013-01-10 07:25:00,22.6,7.0,30.04,SW,236,4.0,5.0,51,0.00,,,0.00,weatherlink.com 1.10,2013-01-10 14:25:00,
2013-01-10 07:40:00,22.1,7.0,30.03,SW,236,0.0,2.0,53,0.00,,,0.00,weatherlink.com 1.10,2013-01-10 14:40:00,
2013-01-10 07:55:00,21.9,8.0,30.03,SW,236,1.0,2.0,56,0.00,,,0.00,weatherlink.com 1.10,2013-01-10 14:55:00,
2013-01-10 08:10:00,22.0,8.0,30.03,SW,219,5.0,8.0,54,0.00,,,0.00,weatherlink.com 1.10,2013-01-10 15:10:00,
2013-01-10 08:25:00,23.5,6.0,30.03,North,360,6.0,8.0,48,0.00,,,0.00,weatherlink.com 1.10,2013-01-10 15:25:00,
2013-01-10 08:40:00,25.5,6.0,30.02,SW,221,5.0,7.0,44,0.00,,,0.00,weatherlink.com 1.10,2013-01-10 15:40:00,
2013-01-10 08:55:00,26.8,8.0,30.02,SW,223,0.0,3.0,45,0.00,,,0.00,weatherlink.com 1.10,2013-01-10 15:55:00,
2013-01-10 09:10:00,28.8,7.0,30.01,SSW,204,4.0,7.0,40,0.00,,,0.00,weatherlink.com 1.10,2013-01-10 16:10:00,
2013-01-10 09:25:00,31.1,8.0,30.01,SSW,196,2.0,7.0,38,0.00,,,0.00,weatherlink.com 1.10,2013-01-10 16:25:00,
2013-01-10 09:40:00,34.0,8.0,30.01,WSW,244,3.0,8.0,33,0.00,,,0.00,weatherlink.com 1.10,2013-01-10 16:40:00,
2013-01-10 09:55:00,35.9,7.0,30.01,SW,223,5.0,8.0,30,0.00,,,0.00,weatherlink.com 1.10,2013-01-10 16:55:00,
2013-01-10 10:10:00,37.2,8.0,30.00,SW,220,0.0,6.0,30,0.00,,,0.00,weatherlink.com 1.10,2013-01-10 17:10:00,
2013-01-10 10:25:00,38.2,10.0,29.99,SE,136,2.0,9.0,31,0.00,,,0.00,weatherlink.com 1.10,2013-01-10 17:25:00,
2013-01-10 10:41:00,36.4,7.0,29.99,ESE,123,8.0,10.0,29,0.00,,,0.00,weatherlink.com 1.10,2013-01-10 17:41:00,
2013-01-10 10:56:00,35.4,7.0,29.97,ESE,107,2.0,9.0,30,0.00,,,0.00,weatherlink.com 1.10,2013-01-10 17:56:00,
2013-01-10 11:11:00,38.0,9.0,29.97,SE,127,1.0,4.0,30,0.00,,,0.00,weatherlink.com 1.10,2013-01-10 18:11:00,
2013-01-10 11:26:00,41.8,6.0,29.96,SE,127,1.0,2.0,23,0.01,,,0.01,weatherlink.com 1.10,2013-01-10 18:26:00,
2013-01-10 11:41:00,44.3,4.0,29.95,ENE,65,2.0,5.0,19,0.01,,,0.01,weatherlink.com 1.10,2013-01-10 18:41:00,
2013-01-10 11:56:00,44.7,5.0,29.94,North,5,1.0,7.0,19,0.01,,,0.01,weatherlink.com 1.10,2013-01-10 18:56:00,
2013-01-10 12:11:00,44.8,7.0,29.93,NNW,328,6.0,8.0,21,0.01,,,0.01,weatherlink.com 1.10,2013-01-10 19:11:00,
2013-01-10 12:26:00,45.6,5.0,29.93,South,187,5.0,23.0,19,0.00,,,0.01,weatherlink.com 1.10,2013-01-10 19:26:00,
2013-01-10 12:41:00,46.0,9.0,29.92,West,267,8.0,19.0,22,0.00,,,0.01,weatherlink.com 1.10,2013-01-10 19:41:00,
2013-01-10 12:56:00,45.6,12.0,29.91,SSW,207,0.0,16.0,25,0.00,,,0.01,weatherlink.com 1.10,2013-01-10 19:56:00,
2013-01-10 13:11:00,44.0,11.0,29.91,SSW,207,6.0,20.0,26,0.00,,,0.01,weatherlink.com 1.10,2013-01-10 20:11:00,
2013-01-10 13:26:00,43.5,11.0,29.90,SSE,149,4.0,17.0,27,0.01,,,0.02,weatherlink.com 1.10,2013-01-10 20:26:00,
2013-01-10 13:41:00,43.5,12.0,29.90,SSW,197,14.0,16.0,28,0.01,,,0.02,weatherlink.com 1.10,2013-01-10 20:41:00,
2013-01-10 13:56:00,43.3,13.0,29.89,SW,214,9.0,24.0,29,0.01,,,0.02,weatherlink.com 1.10,2013-01-10 20:56:00,
2013-01-10 14:11:00,43.3,14.0,29.89,SW,221,5.0,20.0,30,0.01,,,0.02,weatherlink.com 1.10,2013-01-10 21:11:00,
2013-01-10 14:26:00,42.8,15.0,29.89,SSE,167,9.0,20.0,32,0.00,,,0.02,weatherlink.com 1.10,2013-01-10 21:26:00,
2013-01-10 14:41:00,42.8,15.0,29.89,SW,234,1.0,11.0,32,0.00,,,0.02,weatherlink.com 1.10,2013-01-10 21:41:00,
2013-01-10 14:56:00,42.8,17.0,29.88,SSE,151,10.0,16.0,35,0.00,,,0.02,weatherlink.com 1.10,2013-01-10 21:56:00,
2013-01-10 15:11:00,42.8,17.0,29.88,SSW,198,13.0,18.0,36,0.00,,,0.02,weatherlink.com 1.10,2013-01-10 22:11:00,
2013-01-10 15:26:00,42.1,17.0,29.88,SSW,207,11.0,29.0,37,0.00,,,0.02,weatherlink.com 1.10,2013-01-10 22:26:00,
2013-01-10 15:41:00,41.4,18.0,29.87,South,171,7.0,26.0,39,0.00,,,0.02,weatherlink.com 1.10,2013-01-10 22:41:00,
2013-01-10 15:56:00,40.6,18.0,29.87,SSE,161,5.0,21.0,40,0.00,,,0.02,weatherlink.com 1.10,2013-01-10 22:56:00,
2013-01-10 16:11:00,40.2,18.0,29.87,SSE,157,16.0,23.0,41,0.00,,,0.02,weatherlink.com 1.10,2013-01-10 23:11:00,
2013-01-10 16:26:00,39.5,19.0,29.87,South,184,8.0,18.0,44,0.00,,,0.02,weatherlink.com 1.10,2013-01-10 23:26:00,
2013-01-10 16:41:00,38.8,20.0,29.87,South,188,5.0,24.0,47,0.00,,,0.02,weatherlink.com 1.10,2013-01-10 23:41:00,
2013-01-10 16:56:00,36.4,23.0,29.87,SSW,196,10.0,19.0,58,0.00,,,0.02,weatherlink.com 1.10,2013-01-10 23:56:00,
2013-01-10 17:11:00,35.2,23.0,29.87,South,175,9.0,16.0,62,0.00,,,0.02,weatherlink.com 1.10,2013-01-11 00:11:00,
2013-01-10 17:26:00,34.7,23.0,29.86,SSW,195,0.0,10.0,63,0.00,,,0.02,weatherlink.com 1.10,2013-01-11 00:26:00,
2013-01-10 17:41:00,34.5,22.0,29.86,South,172,7.0,16.0,60,0.00,,,0.02,weatherlink.com 1.10,2013-01-11 00:41:00,
2013-01-10 17:56:00,34.6,23.0,29.86,SW,224,14.0,17.0,62,0.00,,,0.02,weatherlink.com 1.10,2013-01-11 00:56:00,
2013-01-10 18:11:00,34.3,23.0,29.86,SW,219,9.0,26.0,63,0.00,,,0.02,weatherlink.com 1.10,2013-01-11 01:11:00,
2013-01-10 18:26:00,34.0,23.0,29.86,South,171,19.0,19.0,64,0.00,,,0.02,weatherlink.com 1.10,2013-01-11 01:26:00,
2013-01-10 18:41:00,33.6,23.0,29.85,SE,133,11.0,24.0,65,0.00,,,0.02,weatherlink.com 1.10,2013-01-11 01:41:00,
2013-01-10 18:56:00,33.5,22.0,29.84,SSE,150,10.0,24.0,64,0.00,,,0.02,weatherlink.com 1.10,2013-01-11 01:56:00,
2013-01-10 19:12:00,33.4,22.0,29.82,SE,124,12.0,27.0,64,0.00,,,0.02,weatherlink.com 1.10,2013-01-11 02:12:00,
2013-01-10 19:27:00,33.5,22.0,29.82,East,101,11.0,25.0,62,0.00,,,0.02,weatherlink.com 1.10,2013-01-11 02:27:00,
2013-01-10 19:57:00,32.8,22.0,29.80,SSE,152,12.0,21.0,64,0.00,,,0.02,weatherlink.com 1.10,2013-01-11 02:57:00,
2013-01-10 20:12:00,32.8,21.0,29.80,South,181,12.0,23.0,63,0.00,,,0.02,weatherlink.com 1.10,2013-01-11 03:12:00,
2013-01-10 20:27:00,32.8,21.0,29.79,SE,133,13.0,21.0,63,0.00,,,0.02,weatherlink.com 1.10,2013-01-11 03:27:00,
2013-01-10 20:42:00,33.0,21.0,29.79,SE,146,7.0,25.0,61,0.00,,,0.02,weatherlink.com 1.10,2013-01-11 03:42:00,
2013-01-10 20:57:00,33.3,19.0,29.78,South,173,8.0,19.0,57,0.00,,,0.02,weatherlink.com 1.10,2013-01-11 03:57:00,
2013-01-10 21:12:00,33.3,19.0,29.78,North,360,7.0,15.0,56,0.00,,,0.02,weatherlink.com 1.10,2013-01-11 04:12:00,
2013-01-10 21:27:00,33.7,19.0,29.77,SSE,151,12.0,23.0,55,0.00,,,0.02,weatherlink.com 1.10,2013-01-11 04:27:00,
2013-01-10 21:42:00,33.8,18.0,29.77,SSW,192,10.0,22.0,52,0.00,,,0.02,weatherlink.com 1.10,2013-01-11 04:42:00,
2013-01-10 21:57:00,33.5,18.0,29.76,SSW,192,11.0,14.0,54,0.00,,,0.02,weatherlink.com 1.10,2013-01-11 04:57:00,
2013-01-10 22:12:00,33.6,18.0,29.76,SE,130,13.0,23.0,54,0.00,,,0.02,weatherlink.com 1.10,2013-01-11 05:12:00,
2013-01-10 22:27:00,33.3,19.0,29.75,SSE,159,12.0,19.0,56,0.00,,,0.02,weatherlink.com 1.10,2013-01-11 05:27:00,
2013-01-10 22:42:00,32.8,20.0,29.75,SSW,207,7.0,19.0,59,0.00,,,0.02,weatherlink.com 1.10,2013-01-11 05:42:00,
2013-01-10 22:58:00,32.4,20.0,29.74,SE,133,4.0,16.0,61,0.00,,,0.02,weatherlink.com 1.10,2013-01-11 05:58:00,
2013-01-10 23:12:00,32.3,20.0,29.73,South,173,8.0,16.0,60,0.00,,,0.02,weatherlink.com 1.10,2013-01-11 06:12:00,
2013-01-10 23:27:00,31.5,22.0,29.72,SE,146,15.0,26.0,67,0.00,,,0.02,weatherlink.com 1.10,2013-01-11 06:27:00,
2013-01-10 23:42:00,30.9,22.0,29.73,SSE,156,7.0,20.0,69,0.00,,,0.02,weatherlink.com 1.10,2013-01-11 06:42:00,
2013-01-10 23:57:00,31.0,21.0,29.74,West,268,10.0,12.0,66,0.00,,,0.02,weatherlink.com 1.10,2013-01-11 06:57:00,